sensor_id;sensor_type;location;lat;lon;timestamp;pressure;altitude;pressure_sealevel;temperature;humidity
64368;BME280;50692;53.314;-6.300;2023-04-26T00:01:33;101435.34;;;9.65;61.09
64368;BME280;50692;53.314;-6.300;2023-04-26T00:04:20;101430.09;;;9.63;61.21
64368;BME280;50692;53.314;-6.300;2023-04-26T00:07:05;101432.88;;;9.60;61.32
64368;BME280;50692;53.314;-6.300;2023-04-26T00:09:53;101433.66;;;9.62;61.22
64368;BME280;50692;53.314;-6.300;2023-04-26T00:12:38;101434.59;;;9.61;61.48
64368;BME280;50692;53.314;-6.300;2023-04-26T00:15:25;101432.00;;;9.59;61.55
64368;BME280;50692;53.314;-6.300;2023-04-26T00:18:11;101439.81;;;9.63;61.50
64368;BME280;50692;53.314;-6.300;2023-04-26T00:20:57;101438.09;;;9.61;61.62
64368;BME280;50692;53.314;-6.300;2023-04-26T00:23:43;101446.00;;;9.61;61.59
64368;BME280;50692;53.314;-6.300;2023-04-26T00:26:29;101443.88;;;9.48;61.95
64368;BME280;50692;53.314;-6.300;2023-04-26T00:29:15;101432.25;;;9.53;61.94
64368;BME280;50692;53.314;-6.300;2023-04-26T00:32:00;101421.63;;;9.55;61.90
64368;BME280;50692;53.314;-6.300;2023-04-26T00:34:46;101424.03;;;9.61;61.83
64368;BME280;50692;53.314;-6.300;2023-04-26T00:37:32;101433.63;;;9.64;61.89
64368;BME280;50692;53.314;-6.300;2023-04-26T00:40:18;101436.28;;;9.64;61.77
64368;BME280;50692;53.314;-6.300;2023-04-26T00:43:05;101430.00;;;9.66;61.92
64368;BME280;50692;53.314;-6.300;2023-04-26T00:45:51;101417.78;;;9.64;62.15
64368;BME280;50692;53.314;-6.300;2023-04-26T00:48:38;101410.03;;;9.59;62.53
64368;BME280;50692;53.314;-6.300;2023-04-26T00:51:24;101416.13;;;9.61;62.62
64368;BME280;50692;53.314;-6.300;2023-04-26T00:54:10;101400.63;;;9.52;62.76
64368;BME280;50692;53.314;-6.300;2023-04-26T00:56:57;101406.72;;;9.54;62.78
64368;BME280;50692;53.314;-6.300;2023-04-26T00:59:43;101403.03;;;9.58;62.85
64368;BME280;50692;53.314;-6.300;2023-04-26T01:02:29;101404.84;;;9.56;63.18
64368;BME280;50692;53.314;-6.300;2023-04-26T01:05:15;101388.41;;;9.49;63.24
64368;BME280;50692;53.314;-6.300;2023-04-26T01:08:01;101390.81;;;9.55;63.41
64368;BME280;50692;53.314;-6.300;2023-04-26T01:10:49;101384.63;;;9.56;63.49
64368;BME280;50692;53.314;-6.300;2023-04-26T01:13:36;101382.00;;;9.56;63.82
64368;BME280;50692;53.314;-6.300;2023-04-26T01:16:22;101382.03;;;9.55;63.88
64368;BME280;50692;53.314;-6.300;2023-04-26T01:19:09;101379.47;;;9.53;63.91
64368;BME280;50692;53.314;-6.300;2023-04-26T01:21:57;101382.88;;;9.55;63.92
64368;BME280;50692;53.314;-6.300;2023-04-26T01:24:45;101385.50;;;9.57;64.26
64368;BME280;50692;53.314;-6.300;2023-04-26T01:27:32;101383.75;;;9.56;64.24
64368;BME280;50692;53.314;-6.300;2023-04-26T01:30:17;101376.81;;;9.53;64.34
64368;BME280;50692;53.314;-6.300;2023-04-26T01:33:03;101369.75;;;9.54;64.52
64368;BME280;50692;53.314;-6.300;2023-04-26T01:35:50;101372.41;;;9.54;64.62
64368;BME280;50692;53.314;-6.300;2023-04-26T01:38:36;101354.91;;;9.51;64.76
64368;BME280;50692;53.314;-6.300;2023-04-26T01:41:22;101363.66;;;9.52;64.91
64368;BME280;50692;53.314;-6.300;2023-04-26T01:44:08;101358.34;;;9.53;64.91
64368;BME280;50692;53.314;-6.300;2023-04-26T01:46:54;101364.53;;;9.52;65.29
64368;BME280;50692;53.314;-6.300;2023-04-26T01:49:40;101357.50;;;9.53;65.12
64368;BME280;50692;53.314;-6.300;2023-04-26T01:52:26;101353.13;;;9.52;65.67
64368;BME280;50692;53.314;-6.300;2023-04-26T01:55:12;101344.34;;;9.51;65.33
64368;BME280;50692;53.314;-6.300;2023-04-26T01:57:58;101345.19;;;9.52;65.44
64368;BME280;50692;53.314;-6.300;2023-04-26T02:00:43;101345.16;;;9.53;65.57
64368;BME280;50692;53.314;-6.300;2023-04-26T02:03:29;101347.84;;;9.52;65.41
64368;BME280;50692;53.314;-6.300;2023-04-26T02:06:15;101336.44;;;9.51;65.75
64368;BME280;50692;53.314;-6.300;2023-04-26T02:09:01;101356.59;;;9.52;65.55
64368;BME280;50692;53.314;-6.300;2023-04-26T02:11:47;101344.34;;;9.51;65.83
64368;BME280;50692;53.314;-6.300;2023-04-26T02:14:33;101348.69;;;9.52;65.87
64368;BME280;50692;53.314;-6.300;2023-04-26T02:17:18;101339.19;;;9.48;66.09
64368;BME280;50692;53.314;-6.300;2023-04-26T02:20:06;101333.78;;;9.51;66.14
64368;BME280;50692;53.314;-6.300;2023-04-26T02:22:54;101332.94;;;9.51;66.12
64368;BME280;50692;53.314;-6.300;2023-04-26T02:25:44;101322.69;;;9.43;66.13
64368;BME280;50692;53.314;-6.300;2023-04-26T02:28:30;101333.03;;;9.48;66.20
64368;BME280;50692;53.314;-6.300;2023-04-26T02:31:16;101336.44;;;9.51;66.22
64368;BME280;50692;53.314;-6.300;2023-04-26T02:34:02;101329.38;;;9.52;66.48
64368;BME280;50692;53.314;-6.300;2023-04-26T02:36:48;101331.16;;;9.51;66.42
64368;BME280;50692;53.314;-6.300;2023-04-26T02:39:34;101322.31;;;9.52;66.64
64368;BME280;50692;53.314;-6.300;2023-04-26T02:42:19;101319.66;;;9.52;66.54
64368;BME280;50692;53.314;-6.300;2023-04-26T02:45:06;101323.13;;;9.54;66.70
64368;BME280;50692;53.314;-6.300;2023-04-26T02:47:52;101316.13;;;9.53;66.84
64368;BME280;50692;53.314;-6.300;2023-04-26T02:50:38;101315.31;;;9.51;67.51
64368;BME280;50692;53.314;-6.300;2023-04-26T02:53:23;101306.66;;;9.48;67.46
64368;BME280;50692;53.314;-6.300;2023-04-26T02:56:09;101307.50;;;9.48;67.58
64368;BME280;50692;53.314;-6.300;2023-04-26T02:58:55;101301.38;;;9.48;67.71
64368;BME280;50692;53.314;-6.300;2023-04-26T03:01:41;101292.53;;;9.49;67.89
64368;BME280;50692;53.314;-6.300;2023-04-26T03:04:27;101289.91;;;9.49;68.02
64368;BME280;50692;53.314;-6.300;2023-04-26T03:07:14;101287.31;;;9.47;68.16
64368;BME280;50692;53.314;-6.300;2023-04-26T03:10:00;101297.97;;;9.46;68.32
64368;BME280;50692;53.314;-6.300;2023-04-26T03:12:46;101291.75;;;9.47;68.21
64368;BME280;50692;53.314;-6.300;2023-04-26T03:15:32;101297.88;;;9.47;68.11
64368;BME280;50692;53.314;-6.300;2023-04-26T03:18:18;101292.59;;;9.47;68.18
64368;BME280;50692;53.314;-6.300;2023-04-26T03:21:05;101303.22;;;9.46;68.46
64368;BME280;50692;53.314;-6.300;2023-04-26T03:23:51;101286.66;;;9.42;68.68
64368;BME280;50692;53.314;-6.300;2023-04-26T03:26:37;101291.06;;;9.42;68.57
64368;BME280;50692;53.314;-6.300;2023-04-26T03:29:23;101283.13;;;9.42;68.86
64368;BME280;50692;53.314;-6.300;2023-04-26T03:32:08;101292.59;;;9.47;69.01
64368;BME280;50692;53.314;-6.300;2023-04-26T03:34:54;101289.22;;;9.44;68.70
64368;BME280;50692;53.314;-6.300;2023-04-26T03:37:40;101285.53;;;9.48;68.97
64368;BME280;50692;53.314;-6.300;2023-04-26T03:40:26;101283.75;;;9.48;68.77
64368;BME280;50692;53.314;-6.300;2023-04-26T03:43:12;101289.03;;;9.48;68.86
64368;BME280;50692;53.314;-6.300;2023-04-26T03:45:58;101273.41;;;9.44;68.84
64368;BME280;50692;53.314;-6.300;2023-04-26T03:48:44;101286.66;;;9.42;69.15
64368;BME280;50692;53.314;-6.300;2023-04-26T03:51:30;101276.22;;;9.39;69.48
64368;BME280;50692;53.314;-6.300;2023-04-26T03:54:16;101280.75;;;9.35;69.65
64368;BME280;50692;53.314;-6.300;2023-04-26T03:57:02;101269.34;;;9.35;69.50
64368;BME280;50692;53.314;-6.300;2023-04-26T03:59:48;101270.19;;;9.35;69.47
64368;BME280;50692;53.314;-6.300;2023-04-26T04:02:34;101259.56;;;9.37;69.21
64368;BME280;50692;53.314;-6.300;2023-04-26T04:05:20;101262.97;;;9.41;68.98
64368;BME280;50692;53.314;-6.300;2023-04-26T04:08:06;101261.13;;;9.43;68.65
64368;BME280;50692;53.314;-6.300;2023-04-26T04:10:51;101255.00;;;9.42;68.56
64368;BME280;50692;53.314;-6.300;2023-04-26T04:13:37;101251.34;;;9.45;68.11
64368;BME280;50692;53.314;-6.300;2023-04-26T04:16:23;101248.78;;;9.43;68.06
64368;BME280;50692;53.314;-6.300;2023-04-26T04:19:09;101240.88;;;9.43;67.72
64368;BME280;50692;53.314;-6.300;2023-04-26T04:21:55;101246.16;;;9.43;67.40
64368;BME280;50692;53.314;-6.300;2023-04-26T04:24:41;101246.09;;;9.45;67.34
64368;BME280;50692;53.314;-6.300;2023-04-26T04:27:28;101244.28;;;9.45;67.11
64368;BME280;50692;53.314;-6.300;2023-04-26T04:30:16;101243.56;;;9.42;67.12
64368;BME280;50692;53.314;-6.300;2023-04-26T04:33:02;101243.56;;;9.42;66.83
64368;BME280;50692;53.314;-6.300;2023-04-26T04:35:49;101241.81;;;9.42;66.86
64368;BME280;50692;53.314;-6.300;2023-04-26T04:38:36;101239.28;;;9.39;66.73
64368;BME280;50692;53.314;-6.300;2023-04-26T04:41:22;101239.31;;;9.37;66.67
64368;BME280;50692;53.314;-6.300;2023-04-26T04:44:08;101240.91;;;9.42;66.55
64368;BME280;50692;53.314;-6.300;2023-04-26T04:46:54;101246.16;;;9.43;66.62
64368;BME280;50692;53.314;-6.300;2023-04-26T04:49:42;101246.16;;;9.43;66.72
64368;BME280;50692;53.314;-6.300;2023-04-26T04:52:27;101239.41;;;9.36;66.81
64368;BME280;50692;53.314;-6.300;2023-04-26T04:55:13;101242.91;;;9.36;67.15
64368;BME280;50692;53.314;-6.300;2023-04-26T04:57:59;101247.31;;;9.36;67.52
64368;BME280;50692;53.314;-6.300;2023-04-26T05:00:47;101245.66;;;9.33;67.99
64368;BME280;50692;53.314;-6.300;2023-04-26T05:03:33;101243.13;;;9.30;68.16
64368;BME280;50692;53.314;-6.300;2023-04-26T05:06:19;101238.69;;;9.31;68.41
64368;BME280;50692;53.314;-6.300;2023-04-26T05:09:05;101236.13;;;9.29;68.52
64368;BME280;50692;53.314;-6.300;2023-04-26T05:11:51;101240.59;;;9.27;68.69
64368;BME280;50692;53.314;-6.300;2023-04-26T05:14:37;101238.97;;;9.25;68.91
64368;BME280;50692;53.314;-6.300;2023-04-26T05:17:22;101241.72;;;9.22;69.25
64368;BME280;50692;53.314;-6.300;2023-04-26T05:20:08;101240.88;;;9.21;69.59
64368;BME280;50692;53.314;-6.300;2023-04-26T05:22:55;101241.72;;;9.22;69.70
64368;BME280;50692;53.314;-6.300;2023-04-26T05:25:41;101244.16;;;9.26;69.42
64368;BME280;50692;53.314;-6.300;2023-04-26T05:28:27;101242.34;;;9.28;69.28
64368;BME280;50692;53.314;-6.300;2023-04-26T05:31:13;101241.22;;;9.34;69.11
64368;BME280;50692;53.314;-6.300;2023-04-26T05:33:59;101249.13;;;9.34;68.81
64368;BME280;50692;53.314;-6.300;2023-04-26T05:36:44;101245.59;;;9.35;68.25
64368;BME280;50692;53.314;-6.300;2023-04-26T05:39:30;101250.56;;;9.43;68.03
64368;BME280;50692;53.314;-6.300;2023-04-26T05:42:16;101258.50;;;9.43;67.87
64368;BME280;50692;53.314;-6.300;2023-04-26T05:45:02;101255.72;;;9.46;67.79
64368;BME280;50692;53.314;-6.300;2023-04-26T05:47:48;101249.44;;;9.48;67.75
64368;BME280;50692;53.314;-6.300;2023-04-26T05:50:34;101258.06;;;9.53;67.63
64368;BME280;50692;53.314;-6.300;2023-04-26T05:53:20;101242.28;;;9.52;67.36
64368;BME280;50692;53.314;-6.300;2023-04-26T05:56:06;101248.91;;;9.62;67.45
64368;BME280;50692;53.314;-6.300;2023-04-26T05:58:52;101253.22;;;9.65;67.63
64368;BME280;50692;53.314;-6.300;2023-04-26T06:01:39;101256.63;;;9.67;67.91
64368;BME280;50692;53.314;-6.300;2023-04-26T06:04:25;101257.38;;;9.70;68.24
64368;BME280;50692;53.314;-6.300;2023-04-26T06:07:11;101246.56;;;9.76;67.84
64368;BME280;50692;53.314;-6.300;2023-04-26T06:09:56;101245.72;;;9.76;67.80
64368;BME280;50692;53.314;-6.300;2023-04-26T06:12:43;101243.81;;;9.79;67.92
64368;BME280;50692;53.314;-6.300;2023-04-26T06:15:28;101243.59;;;9.84;67.85
64368;BME280;50692;53.314;-6.300;2023-04-26T06:18:16;101239.97;;;9.87;67.69
64368;BME280;50692;53.314;-6.300;2023-04-26T06:21:02;101240.72;;;9.90;67.68
64368;BME280;50692;53.314;-6.300;2023-04-26T06:23:47;101225.81;;;9.89;67.49
64368;BME280;50692;53.314;-6.300;2023-04-26T06:26:34;101251.88;;;9.97;67.03
64368;BME280;50692;53.314;-6.300;2023-04-26T06:29:20;101245.88;;;9.93;67.06
64368;BME280;50692;53.314;-6.300;2023-04-26T06:32:07;101251.03;;;9.96;66.96
64368;BME280;50692;53.314;-6.300;2023-04-26T06:34:53;101251.03;;;9.96;66.75
64368;BME280;50692;53.314;-6.300;2023-04-26T06:37:39;101261.50;;;9.98;66.81
64368;BME280;50692;53.314;-6.300;2023-04-26T06:40:25;101262.13;;;10.04;66.79
64368;BME280;50692;53.314;-6.300;2023-04-26T06:43:11;101265.16;;;10.16;66.67
64368;BME280;50692;53.314;-6.300;2023-04-26T06:45:56;101263.75;;;10.29;66.44
64368;BME280;50692;53.314;-6.300;2023-04-26T06:48:42;101261.38;;;10.43;66.10
64368;BME280;50692;53.314;-6.300;2023-04-26T06:51:30;101261.41;;;10.62;65.95
64368;BME280;50692;53.314;-6.300;2023-04-26T06:54:15;101265.88;;;10.80;65.26
64368;BME280;50692;53.314;-6.300;2023-04-26T06:57:01;101259.75;;;10.99;64.53
64368;BME280;50692;53.314;-6.300;2023-04-26T06:59:47;101259.06;;;11.14;64.13
64368;BME280;50692;53.314;-6.300;2023-04-26T07:02:34;101259.31;;;11.27;63.66
64368;BME280;50692;53.314;-6.300;2023-04-26T07:05:20;101255.59;;;11.31;63.08
64368;BME280;50692;53.314;-6.300;2023-04-26T07:08:06;101266.19;;;11.50;62.64
64368;BME280;50692;53.314;-6.300;2023-04-26T07:10:52;101263.88;;;11.61;62.25
64368;BME280;50692;53.314;-6.300;2023-04-26T07:13:39;101262.41;;;11.73;61.67
64368;BME280;50692;53.314;-6.300;2023-04-26T07:16:25;101255.53;;;11.88;60.82
64368;BME280;50692;53.314;-6.300;2023-04-26T07:19:11;101269.75;;;12.04;60.35
64368;BME280;50692;53.314;-6.300;2023-04-26T07:21:57;101261.97;;;12.18;59.49
64368;BME280;50692;53.314;-6.300;2023-04-26T07:24:43;101255.41;;;12.26;59.04
64368;BME280;50692;53.314;-6.300;2023-04-26T07:27:30;101267.63;;;12.45;58.71
64368;BME280;50692;53.314;-6.300;2023-04-26T07:30:16;101259.63;;;12.63;58.32
64368;BME280;50692;53.314;-6.300;2023-04-26T07:33:02;101254.38;;;12.79;57.82
64368;BME280;50692;53.314;-6.300;2023-04-26T07:35:57;101253.13;;;12.86;56.28
64368;BME280;50692;53.314;-6.300;2023-04-26T07:38:44;101240.53;;;12.89;55.48
64368;BME280;50692;53.314;-6.300;2023-04-26T07:41:30;101248.25;;;12.94;54.34
64368;BME280;50692;53.314;-6.300;2023-04-26T07:44:16;101244.91;;;12.90;53.32
64368;BME280;50692;53.314;-6.300;2023-04-26T07:47:02;101247.91;;;13.00;53.10
64368;BME280;50692;53.314;-6.300;2023-04-26T07:49:52;101252.97;;;13.05;52.23
64368;BME280;50692;53.314;-6.300;2023-04-26T07:52:38;101252.03;;;13.06;51.89
64368;BME280;50692;53.314;-6.300;2023-04-26T07:55:24;101243.03;;;13.08;51.51
64368;BME280;50692;53.314;-6.300;2023-04-26T07:58:10;101248.41;;;13.07;50.89
64368;BME280;50692;53.314;-6.300;2023-04-26T08:00:59;101248.41;;;13.07;49.87
64368;BME280;50692;53.314;-6.300;2023-04-26T08:03:45;101240.66;;;13.04;49.54
64368;BME280;50692;53.314;-6.300;2023-04-26T08:06:31;101248.78;;;13.01;50.28
64368;BME280;50692;53.314;-6.300;2023-04-26T08:09:17;101244.47;;;12.98;49.99
64368;BME280;50692;53.314;-6.300;2023-04-26T08:12:03;101259.56;;;13.13;50.42
64368;BME280;50692;53.314;-6.300;2023-04-26T08:14:49;101238.69;;;13.23;51.06
64368;BME280;50692;53.314;-6.300;2023-04-26T08:17:35;101242.13;;;13.41;51.12
64368;BME280;50692;53.314;-6.300;2023-04-26T08:20:22;101254.47;;;13.58;51.40
64368;BME280;50692;53.314;-6.300;2023-04-26T08:23:08;101251.19;;;13.68;50.82
64368;BME280;50692;53.314;-6.300;2023-04-26T08:25:54;101250.75;;;13.60;49.90
64368;BME280;50692;53.314;-6.300;2023-04-26T08:28:43;101262.16;;;13.62;48.71
64368;BME280;50692;53.314;-6.300;2023-04-26T08:31:29;101253.19;;;13.65;48.90
64368;BME280;50692;53.314;-6.300;2023-04-26T08:34:15;101250.16;;;13.71;48.72
64368;BME280;50692;53.314;-6.300;2023-04-26T08:37:02;101248.28;;;13.73;49.14
64368;BME280;50692;53.314;-6.300;2023-04-26T08:39:47;101253.13;;;13.81;48.87
64368;BME280;50692;53.314;-6.300;2023-04-26T08:42:40;101247.72;;;13.82;48.05
64368;BME280;50692;53.314;-6.300;2023-04-26T08:45:27;101244.63;;;13.90;47.74
64368;BME280;50692;53.314;-6.300;2023-04-26T08:48:13;101250.25;;;14.00;47.37
64368;BME280;50692;53.314;-6.300;2023-04-26T08:51:02;101251.53;;;14.08;47.52
64368;BME280;50692;53.314;-6.300;2023-04-26T08:53:49;101254.69;;;14.15;46.92
64368;BME280;50692;53.314;-6.300;2023-04-26T08:56:38;101251.25;;;14.13;46.30
64368;BME280;50692;53.314;-6.300;2023-04-26T08:59:24;101253.72;;;14.16;46.74
64368;BME280;50692;53.314;-6.300;2023-04-26T09:02:13;101259.13;;;14.14;46.40
64368;BME280;50692;53.314;-6.300;2023-04-26T09:05:01;101253.13;;;14.11;46.33
64368;BME280;50692;53.314;-6.300;2023-04-26T09:07:50;101256.41;;;14.30;46.35
64368;BME280;50692;53.314;-6.300;2023-04-26T09:10:38;101249.13;;;14.48;45.53
64368;BME280;50692;53.314;-6.300;2023-04-26T09:13:27;101244.16;;;14.72;45.66
64368;BME280;50692;53.314;-6.300;2023-04-26T09:16:15;101236.84;;;14.90;43.64
64368;BME280;50692;53.314;-6.300;2023-04-26T09:19:01;101238.53;;;15.05;44.30
64368;BME280;50692;53.314;-6.300;2023-04-26T09:21:49;101236.78;;;15.19;43.46
64368;BME280;50692;53.314;-6.300;2023-04-26T09:24:56;101239.22;;;15.22;43.53
64368;BME280;50692;53.314;-6.300;2023-04-26T09:27:43;101236.38;;;15.25;43.55
64368;BME280;50692;53.314;-6.300;2023-04-26T09:30:29;101241.63;;;15.26;41.88
64368;BME280;50692;53.314;-6.300;2023-04-26T09:33:15;101231.53;;;15.31;41.90
64368;BME280;50692;53.314;-6.300;2023-04-26T09:36:11;101227.34;;;15.27;42.43
64368;BME280;50692;53.314;-6.300;2023-04-26T09:39:00;101242.47;;;15.54;42.29
64368;BME280;50692;53.314;-6.300;2023-04-26T09:41:46;101252.38;;;15.66;42.39
64368;BME280;50692;53.314;-6.300;2023-04-26T09:44:32;101244.28;;;15.53;42.57
64368;BME280;50692;53.314;-6.300;2023-04-26T09:47:20;101246.63;;;15.72;42.50
64368;BME280;50692;53.314;-6.300;2023-04-26T09:50:06;101248.56;;;15.70;42.28
64368;BME280;50692;53.314;-6.300;2023-04-26T09:52:52;101246.09;;;15.67;41.77
64368;BME280;50692;53.314;-6.300;2023-04-26T09:55:38;101243.06;;;15.59;41.80
64368;BME280;50692;53.314;-6.300;2023-04-26T09:58:24;101248.38;;;15.59;41.73
64368;BME280;50692;53.314;-6.300;2023-04-26T10:01:10;101252.19;;;15.69;41.40
64368;BME280;50692;53.314;-6.300;2023-04-26T10:04:01;101254.19;;;15.66;41.35
64368;BME280;50692;53.314;-6.300;2023-04-26T10:06:49;101254.91;;;15.41;41.08
64368;BME280;50692;53.314;-6.300;2023-04-26T10:09:34;101255.00;;;15.39;41.61
64368;BME280;50692;53.314;-6.300;2023-04-26T10:12:20;101249.84;;;15.36;42.02
64368;BME280;50692;53.314;-6.300;2023-04-26T10:15:08;101236.31;;;15.26;42.60
64368;BME280;50692;53.314;-6.300;2023-04-26T10:17:54;101241.25;;;15.18;42.77
64368;BME280;50692;53.314;-6.300;2023-04-26T10:20:43;101229.94;;;15.15;43.63
64368;BME280;50692;53.314;-6.300;2023-04-26T10:23:29;101240.16;;;15.35;43.56
64368;BME280;50692;53.314;-6.300;2023-04-26T10:26:50;101234.72;;;15.51;44.83
64368;BME280;50692;53.314;-6.300;2023-04-26T10:39:17;101226.09;;;16.52;44.25
64368;BME280;50692;53.314;-6.300;2023-04-26T10:42:23;101225.19;;;17.03;43.79
64368;BME280;50692;53.314;-6.300;2023-04-26T10:45:26;101226.44;;;17.23;40.64
64368;BME280;50692;53.314;-6.300;2023-04-26T10:48:20;101224.25;;;17.41;39.00
64368;BME280;50692;53.314;-6.300;2023-04-26T10:51:06;101218.38;;;17.60;39.47
64368;BME280;50692;53.314;-6.300;2023-04-26T10:59:24;101220.59;;;17.42;39.62
64368;BME280;50692;53.314;-6.300;2023-04-26T11:02:10;101207.03;;;17.32;39.04
64368;BME280;50692;53.314;-6.300;2023-04-26T11:04:56;101213.06;;;17.47;39.30
64368;BME280;50692;53.314;-6.300;2023-04-26T11:07:43;101210.38;;;17.84;37.80
64368;BME280;50692;53.314;-6.300;2023-04-26T11:10:29;101215.75;;;17.95;36.95
64368;BME280;50692;53.314;-6.300;2023-04-26T11:13:15;101203.13;;;18.08;35.13
64368;BME280;50692;53.314;-6.300;2023-04-26T11:16:04;101216.06;;;18.37;34.86
64368;BME280;50692;53.314;-6.300;2023-04-26T11:18:53;101203.91;;;18.21;35.21
64368;BME280;50692;53.314;-6.300;2023-04-26T11:21:39;101199.44;;;18.56;35.08
64368;BME280;50692;53.314;-6.300;2023-04-26T11:24:32;101201.06;;;18.92;32.93
64368;BME280;50692;53.314;-6.300;2023-04-26T11:27:26;101199.56;;;19.10;32.44
64368;BME280;50692;53.314;-6.300;2023-04-26T11:30:12;101205.41;;;19.48;32.33
64368;BME280;50692;53.314;-6.300;2023-04-26T11:33:00;101212.44;;;19.71;31.95
64368;BME280;50692;53.314;-6.300;2023-04-26T11:35:46;101212.28;;;20.05;30.58
64368;BME280;50692;53.314;-6.300;2023-04-26T11:38:32;101198.34;;;20.11;30.09
64368;BME280;50692;53.314;-6.300;2023-04-26T11:41:21;101218.28;;;19.76;31.23
64368;BME280;50692;53.314;-6.300;2023-04-26T11:44:10;101219.47;;;20.04;31.75
64368;BME280;50692;53.314;-6.300;2023-04-26T11:46:58;101217.06;;;20.01;30.94
64368;BME280;50692;53.314;-6.300;2023-04-26T11:49:45;101226.41;;;19.86;30.76
64368;BME280;50692;53.314;-6.300;2023-04-26T11:52:31;101223.19;;;19.71;30.41
64368;BME280;50692;53.314;-6.300;2023-04-26T11:55:23;101225.81;;;19.39;31.02
64368;BME280;50692;53.314;-6.300;2023-04-26T11:58:12;101229.44;;;19.49;30.73
64368;BME280;50692;53.314;-6.300;2023-04-26T12:00:59;101228.66;;;19.15;30.18
64368;BME280;50692;53.314;-6.300;2023-04-26T12:03:53;101222.16;;;19.40;30.36
64368;BME280;50692;53.314;-6.300;2023-04-26T12:06:44;101228.88;;;19.34;30.09
64368;BME280;50692;53.314;-6.300;2023-04-26T12:09:30;101240.75;;;19.09;30.62
64368;BME280;50692;53.314;-6.300;2023-04-26T12:12:16;101240.47;;;19.01;30.21
64368;BME280;50692;53.314;-6.300;2023-04-26T12:15:09;101221.25;;;19.07;29.16
64368;BME280;50692;53.314;-6.300;2023-04-26T12:20:44;101239.44;;;19.47;28.17
64368;BME280;50692;53.314;-6.300;2023-04-26T12:23:39;101242.69;;;19.94;27.70
64368;BME280;50692;53.314;-6.300;2023-04-26T12:26:43;101236.59;;;20.24;27.91
64368;BME280;50692;53.314;-6.300;2023-04-26T12:29:29;101237.28;;;20.05;27.57
64368;BME280;50692;53.314;-6.300;2023-04-26T12:32:17;101231.28;;;19.49;28.81
64368;BME280;50692;53.314;-6.300;2023-04-26T12:35:02;101226.59;;;19.62;29.21
64368;BME280;50692;53.314;-6.300;2023-04-26T12:37:51;101233.91;;;19.71;28.63
64368;BME280;50692;53.314;-6.300;2023-04-26T12:40:42;101232.16;;;19.38;29.31
64368;BME280;50692;53.314;-6.300;2023-04-26T12:43:27;101219.22;;;19.86;29.40
64368;BME280;50692;53.314;-6.300;2023-04-26T12:46:13;101225.84;;;20.03;28.66
64368;BME280;50692;53.314;-6.300;2023-04-26T12:49:02;101227.53;;;20.04;29.04
64368;BME280;50692;53.314;-6.300;2023-04-26T12:51:48;101242.66;;;19.73;29.24
64368;BME280;50692;53.314;-6.300;2023-04-26T12:54:33;101226.78;;;19.27;28.98
64368;BME280;50692;53.314;-6.300;2023-04-26T12:57:20;101231.00;;;18.75;28.57
64368;BME280;50692;53.314;-6.300;2023-04-26T13:00:14;101231.88;;;18.29;29.40
64368;BME280;50692;53.314;-6.300;2023-04-26T13:03:01;101236.94;;;17.98;30.29
64368;BME280;50692;53.314;-6.300;2023-04-26T13:05:47;101234.81;;;17.66;30.59
64368;BME280;50692;53.314;-6.300;2023-04-26T13:08:33;101228.53;;;17.55;30.89
64368;BME280;50692;53.314;-6.300;2023-04-26T13:11:20;101234.84;;;17.54;31.44
64368;BME280;50692;53.314;-6.300;2023-04-26T13:14:06;101224.06;;;17.55;32.28
64368;BME280;50692;53.314;-6.300;2023-04-26T13:16:52;101225.19;;;17.40;34.08
64368;BME280;50692;53.314;-6.300;2023-04-26T13:19:38;101216.50;;;17.73;34.55
64368;BME280;50692;53.314;-6.300;2023-04-26T13:22:24;101226.94;;;18.00;33.13
64368;BME280;50692;53.314;-6.300;2023-04-26T13:25:10;101230.13;;;18.05;32.31
64368;BME280;50692;53.314;-6.300;2023-04-26T13:27:57;101224.09;;;17.90;32.57
64368;BME280;50692;53.314;-6.300;2023-04-26T13:30:43;101219.72;;;18.25;32.55
64368;BME280;50692;53.314;-6.300;2023-04-26T13:33:29;101224.38;;;18.45;32.65
64368;BME280;50692;53.314;-6.300;2023-04-26T13:36:15;101225.09;;;18.58;31.83
64368;BME280;50692;53.314;-6.300;2023-04-26T13:39:01;101218.53;;;18.51;32.32
64368;BME280;50692;53.314;-6.300;2023-04-26T13:41:49;101210.31;;;18.99;31.67
64368;BME280;50692;53.314;-6.300;2023-04-26T13:44:35;101215.78;;;19.41;30.74
64368;BME280;50692;53.314;-6.300;2023-04-26T13:47:21;101222.66;;;19.23;29.72
64368;BME280;50692;53.314;-6.300;2023-04-26T13:50:07;101222.50;;;18.81;29.28
64368;BME280;50692;53.314;-6.300;2023-04-26T13:52:53;101225.47;;;19.32;28.70
64368;BME280;50692;53.314;-6.300;2023-04-26T13:55:39;101221.34;;;19.60;29.21
64368;BME280;50692;53.314;-6.300;2023-04-26T13:58:25;101220.72;;;20.00;28.07
64368;BME280;50692;53.314;-6.300;2023-04-26T14:01:11;101217.84;;;19.92;27.66
64368;BME280;50692;53.314;-6.300;2023-04-26T14:03:58;101221.44;;;19.81;27.76
64368;BME280;50692;53.314;-6.300;2023-04-26T14:06:44;101218.09;;;19.89;28.07
64368;BME280;50692;53.314;-6.300;2023-04-26T14:09:30;101217.06;;;20.01;27.73
64368;BME280;50692;53.314;-6.300;2023-04-26T14:12:16;101214.69;;;20.29;27.26
64368;BME280;50692;53.314;-6.300;2023-04-26T14:15:02;101215.75;;;20.58;27.35
64368;BME280;50692;53.314;-6.300;2023-04-26T14:17:51;101210.00;;;20.21;27.07
64368;BME280;50692;53.314;-6.300;2023-04-26T14:20:37;101228.44;;;20.35;27.45
64368;BME280;50692;53.314;-6.300;2023-04-26T14:23:23;101216.41;;;20.30;27.76
64368;BME280;50692;53.314;-6.300;2023-04-26T14:26:09;101220.13;;;20.39;27.12
64368;BME280;50692;53.314;-6.300;2023-04-26T14:28:55;101222.84;;;20.48;26.18
64368;BME280;50692;53.314;-6.300;2023-04-26T14:31:40;101213.53;;;20.64;25.62
64368;BME280;50692;53.314;-6.300;2023-04-26T14:34:28;101218.34;;;20.70;26.50
64368;BME280;50692;53.314;-6.300;2023-04-26T14:37:13;101211.25;;;21.09;26.24
64368;BME280;50692;53.314;-6.300;2023-04-26T14:39:59;101206.72;;;21.09;25.61
64368;BME280;50692;53.314;-6.300;2023-04-26T14:42:46;101211.91;;;21.42;24.96
64368;BME280;50692;53.314;-6.300;2023-04-26T14:45:31;101209.56;;;21.08;24.04